createdAt,value
2024-01-01T00:00:03.892Z,1005.48
2024-01-01T00:05:03.814Z,1005.44
2024-01-01T00:10:03.072Z,1005.4
2024-01-01T00:15:02.897Z,1005.46
2024-01-01T00:20:03.956Z,1005.52
2024-01-01T00:25:03.777Z,1005.34
2024-01-01T00:30:03.159Z,1005.34
2024-01-01T00:35:03.108Z,1005.36
2024-01-01T00:40:08.092Z,1005.34
2024-01-01T00:45:03.355Z,1005.41
2024-01-01T00:50:03.995Z,1005.41
2024-01-01T00:55:04.091Z,1005.4
2024-01-01T01:00:03.280Z,1005.38
2024-01-01T01:05:08.178Z,1005.34
2024-01-01T01:10:03.152Z,1005.39
2024-01-01T01:15:02.995Z,1005.34
2024-01-01T01:20:08.837Z,1005.34
2024-01-01T01:25:03.941Z,1005.31
2024-01-01T01:30:03.624Z,1005.26
2024-01-01T01:35:03.942Z,1005.14
2024-01-01T01:40:03.258Z,1005.23
2024-01-01T01:45:03.732Z,1005.26
2024-01-01T01:50:03.599Z,1005.31
2024-01-01T01:55:03.795Z,1005.31
2024-01-01T02:00:03.813Z,1005.26
2024-01-01T02:05:03.841Z,1005.23
2024-01-01T02:10:03.581Z,1005.38
2024-01-01T02:15:03.048Z,1005.36
2024-01-01T02:20:20.415Z,1005.36
2024-01-01T02:25:03.361Z,1005.43
2024-01-01T02:30:03.304Z,1005.34
2024-01-01T02:35:03.128Z,1005.44
2024-01-01T02:40:02.999Z,1005.38
2024-01-01T02:45:03.697Z,1005.44
2024-01-01T02:50:03.609Z,1005.44
2024-01-01T02:55:03.805Z,1005.39
2024-01-01T03:00:02.925Z,1005.41
2024-01-01T03:05:03.503Z,1005.33
2024-01-01T03:10:03.551Z,1005.34
2024-01-01T03:15:03.495Z,1005.27
2024-01-01T03:20:03.267Z,1005.46
2024-01-01T03:25:03.681Z,1005.33
2024-01-01T03:30:03.483Z,1005.26
2024-01-01T03:35:03.522Z,1005.13
2024-01-01T03:40:03.188Z,1005.02
2024-01-01T03:45:02.966Z,1005.15
2024-01-01T03:50:03.353Z,1005.04
2024-01-01T03:55:04.622Z,1005.05
2024-01-01T04:00:09.302Z,1004.98
2024-01-01T04:05:03.627Z,1004.97
2024-01-01T04:10:03.245Z,1005.05
2024-01-01T04:15:03.358Z,1005.06
2024-01-01T04:20:03.056Z,1004.95
2024-01-01T04:25:03.714Z,1004.93
2024-01-01T04:30:03.651Z,1005.06
2024-01-01T04:35:03.548Z,1005
2024-01-01T04:40:03.013Z,1004.91
2024-01-01T04:45:03.732Z,1004.91
2024-01-01T04:50:03.842Z,1004.89
2024-01-01T04:55:03.552Z,1004.83
2024-01-01T05:00:03.101Z,1004.84
2024-01-01T05:05:03.786Z,1004.86
2024-01-01T05:10:03.330Z,1004.86
2024-01-01T05:15:03.091Z,1004.9
2024-01-01T05:20:02.992Z,1004.87
2024-01-01T05:25:03.804Z,1004.96
2024-01-01T05:30:03.646Z,1004.96
2024-01-01T05:35:03.573Z,1005.04
2024-01-01T05:40:02.960Z,1005.08
2024-01-01T05:45:03.722Z,1005
2024-01-01T05:50:04.399Z,1005.03
2024-01-01T05:55:03.898Z,1004.98
2024-01-01T06:00:03.152Z,1005
2024-01-01T06:05:04.197Z,1005.06
2024-01-01T06:10:03.384Z,1005.04
2024-01-01T06:15:03.198Z,1005.05
2024-01-01T06:20:03.089Z,1005.15
2024-01-01T06:25:03.513Z,1005.08
2024-01-01T06:30:03.328Z,1005.14
2024-01-01T06:35:03.455Z,1005.12
2024-01-01T06:40:02.968Z,1005.07
2024-01-01T06:45:03.461Z,1005.16
2024-01-01T06:50:03.632Z,1005.12
2024-01-01T06:55:02.966Z,1005.23
2024-01-01T07:00:03.581Z,1005.32
2024-01-01T07:05:04.214Z,1005.26
2024-01-01T07:10:03.236Z,1005.31
2024-01-01T07:15:02.972Z,1005.44
2024-01-01T07:20:03.787Z,1005.43
2024-01-01T07:25:03.517Z,1005.45
2024-01-01T07:30:03.456Z,1005.47
2024-01-01T07:35:03.497Z,1005.52
2024-01-01T07:45:03.622Z,1005.51
2024-01-01T07:50:04.103Z,1005.6
2024-01-01T07:55:04.322Z,1005.68
2024-01-01T08:00:03.514Z,1005.68
2024-01-01T08:05:03.734Z,1005.71
2024-01-01T08:10:03.215Z,1005.68
2024-01-01T08:15:03.909Z,1005.67
2024-01-01T08:20:04.112Z,1005.64
2024-01-01T08:25:03.321Z,1005.71
2024-01-01T08:30:03.146Z,1005.76
2024-01-01T08:35:03.962Z,1005.82
2024-01-01T08:40:03.341Z,1005.76
2024-01-01T08:45:03.111Z,1005.8
2024-01-01T08:55:03.799Z,1005.79
2024-01-01T09:00:03.101Z,1005.89
2024-01-01T09:05:04.359Z,1005.89
2024-01-01T09:10:03.379Z,1005.94
2024-01-01T09:15:03.269Z,1005.91
2024-01-01T09:20:03.528Z,1005.85
2024-01-01T09:25:03.747Z,1005.93
2024-01-01T09:30:03.788Z,1005.97
2024-01-01T09:35:03.428Z,1005.91
2024-01-01T09:40:02.934Z,1005.92
2024-01-01T09:45:07.234Z,1006.06
2024-01-01T09:50:03.611Z,1005.99
2024-01-01T09:55:03.752Z,1006.03
2024-01-01T10:00:03.544Z,1005.9
2024-01-01T10:05:03.501Z,1005.91
2024-01-01T10:10:04.433Z,1005.99
2024-01-01T10:15:07.171Z,1005.95
2024-01-01T10:20:04.132Z,1005.92
2024-01-01T10:25:03.937Z,1005.96
2024-01-01T10:30:03.610Z,1006.04
2024-01-01T10:35:03.741Z,1006.02
2024-01-01T10:40:03.088Z,1005.99
2024-01-01T10:45:02.859Z,1005.96
2024-01-01T10:50:03.795Z,1005.87
2024-01-01T10:55:03.824Z,1005.81
2024-01-01T11:00:02.945Z,1005.89
2024-01-01T11:05:04.043Z,1005.94
2024-01-01T11:10:28.531Z,1005.91
2024-01-01T11:15:03.450Z,1005.98
2024-01-01T11:20:03.949Z,1006.05
2024-01-01T11:25:03.785Z,1006.22
2024-01-01T11:30:03.032Z,1006.07
2024-01-01T11:35:03.865Z,1005.99
2024-01-01T11:40:03.432Z,1005.94
2024-01-01T11:45:03.031Z,1005.96
2024-01-01T11:50:04.087Z,1005.93
2024-01-01T11:55:03.863Z,1005.83
2024-01-01T12:00:03.323Z,1005.8
2024-01-01T12:05:03.443Z,1005.88
2024-01-01T12:10:03.651Z,1005.93
2024-01-01T12:15:03.320Z,1005.96
2024-01-01T12:20:03.208Z,1005.83
2024-01-01T12:25:03.703Z,1005.83
2024-01-01T12:30:04.676Z,1005.95
2024-01-01T12:35:03.483Z,1005.81
2024-01-01T12:40:02.932Z,1005.72
2024-01-01T12:45:03.695Z,1005.74
2024-01-01T12:50:03.655Z,1005.67
2024-01-01T12:55:03.753Z,1005.73
2024-01-01T13:00:03.274Z,1005.6
2024-01-01T13:10:03.157Z,1005.6
2024-01-01T13:15:03.573Z,1005.55
2024-01-01T13:20:03.542Z,1005.59
2024-01-01T13:25:02.993Z,1005.65
2024-01-01T13:30:03.830Z,1005.67
2024-01-01T13:35:03.780Z,1005.71
2024-01-01T13:40:03.189Z,1005.72
2024-01-01T13:45:03.112Z,1005.71
2024-01-01T13:50:03.677Z,1005.76
2024-01-01T13:55:03.834Z,1005.8
2024-01-01T14:00:03.047Z,1005.81
2024-01-01T14:05:03.981Z,1005.81
2024-01-01T14:10:03.671Z,1005.81
2024-01-01T14:15:03.524Z,1005.88
2024-01-01T14:20:04.038Z,1005.85
2024-01-01T14:25:03.497Z,1005.84
2024-01-01T14:30:02.858Z,1005.9
2024-01-01T14:35:03.990Z,1005.91
2024-01-01T14:40:03.357Z,1005.99
2024-01-01T14:45:03.416Z,1006.03
2024-01-01T14:50:03.126Z,1006.08
2024-01-01T14:55:04.010Z,1006.14
2024-01-01T15:00:03.518Z,1006.25
2024-01-01T15:05:03.694Z,1006.31
2024-01-01T15:10:03.210Z,1006.28
2024-01-01T15:15:03.841Z,1006.37
2024-01-01T15:20:03.659Z,1006.3
2024-01-01T15:25:03.314Z,1006.34
2024-01-01T15:30:03.930Z,1006.48
2024-01-01T15:35:03.643Z,1006.43
2024-01-01T15:40:03.584Z,1006.53
2024-01-01T15:50:03.870Z,1006.67
2024-01-01T15:55:03.720Z,1006.58
2024-01-01T16:00:03.452Z,1006.64
2024-01-01T16:05:03.541Z,1006.77
2024-01-01T16:10:03.575Z,1006.79
2024-01-01T16:15:03.402Z,1006.87
2024-01-01T16:20:04.288Z,1006.83
2024-01-01T16:25:02.864Z,1006.89
2024-01-01T16:30:03.855Z,1006.84
2024-01-01T16:35:03.993Z,1006.96
2024-01-01T16:40:03.110Z,1007.04
2024-01-01T16:45:02.905Z,1007.1
2024-01-01T16:50:03.402Z,1007.1
2024-01-01T16:55:04.124Z,1007.1
2024-01-01T17:00:03.390Z,1007.19
2024-01-01T17:05:03.672Z,1007.19
2024-01-01T17:10:02.812Z,1007.24
2024-01-01T17:15:03.787Z,1007.31
2024-01-01T17:20:04.038Z,1007.29
2024-01-01T17:25:02.859Z,1007.3
2024-01-01T17:30:03.068Z,1007.37
2024-01-01T17:35:04.041Z,1007.51
2024-01-01T17:40:03.490Z,1007.48
2024-01-01T17:45:03.209Z,1007.45
2024-01-01T17:50:02.816Z,1007.74
2024-01-01T17:55:04.425Z,1007.76
2024-01-01T18:00:03.161Z,1007.83
2024-01-01T18:05:03.235Z,1007.82
2024-01-01T18:10:03.656Z,1007.8
2024-01-01T18:15:03.328Z,1007.86
2024-01-01T18:20:03.453Z,1007.9
2024-01-01T18:25:02.890Z,1007.99
2024-01-01T18:30:03.696Z,1008.13
2024-01-01T18:35:04.096Z,1008.03
2024-01-01T18:45:03.175Z,1007.98
2024-01-01T18:50:04.071Z,1008.01
2024-01-01T18:55:04.385Z,1008.1
2024-01-01T19:00:03.448Z,1008.1
2024-01-01T19:05:04.118Z,1008.21
2024-01-01T19:10:02.995Z,1008.15
2024-01-01T19:15:05.569Z,1008.17
2024-01-01T19:20:03.716Z,1008.2
2024-01-01T19:25:03.254Z,1008.17
2024-01-01T19:30:02.893Z,1008.18
2024-01-01T19:35:03.700Z,1008.15
2024-01-01T19:40:03.230Z,1008.12
2024-01-01T19:45:02.928Z,1008.28
2024-01-01T19:50:04.089Z,1008.27
2024-01-01T19:55:03.441Z,1008.4
2024-01-01T20:00:03.348Z,1008.42
2024-01-01T20:05:03.237Z,1008.43
2024-01-01T20:10:03.564Z,1008.52
2024-01-01T20:15:03.629Z,1008.55
2024-01-01T20:20:03.379Z,1008.41
2024-01-01T20:25:03.745Z,1008.42
2024-01-01T20:30:03.326Z,1008.49
2024-01-01T20:35:03.569Z,1008.39
2024-01-01T20:40:02.988Z,1008.47
2024-01-01T20:45:03.652Z,1008.47
2024-01-01T20:50:03.726Z,1008.5
2024-01-01T20:55:03.470Z,1008.56
2024-01-01T21:00:04.326Z,1008.58
2024-01-01T21:05:04.054Z,1008.63
2024-01-01T21:10:03.462Z,1008.58
2024-01-01T21:15:03.204Z,1008.54
2024-01-01T21:20:03.437Z,1008.63
2024-01-01T21:25:02.912Z,1008.6
2024-01-01T21:30:03.733Z,1008.69
2024-01-01T21:35:03.499Z,1008.7
2024-01-01T21:40:03.112Z,1008.69
2024-01-01T21:45:03.873Z,1008.64
2024-01-01T21:50:03.972Z,1008.67
2024-01-01T21:55:03.743Z,1008.72
2024-01-01T22:00:03.085Z,1008.76
2024-01-01T22:05:04.060Z,1008.73
2024-01-01T22:10:03.530Z,1008.77
2024-01-01T22:15:03.242Z,1008.75
2024-01-01T22:20:03.282Z,1008.76
2024-01-01T22:25:02.883Z,1008.68
2024-01-01T22:30:03.890Z,1008.75
2024-01-01T22:35:03.482Z,1008.75
2024-01-01T22:40:03.108Z,1008.73
2024-01-01T22:45:03.492Z,1008.76
2024-01-01T22:50:04.219Z,1008.87
2024-01-01T22:55:03.252Z,1008.85
2024-01-01T23:00:04.003Z,1008.78
2024-01-01T23:05:03.295Z,1008.75
2024-01-01T23:10:03.818Z,1008.77
2024-01-01T23:15:03.418Z,1008.75
2024-01-01T23:20:03.401Z,1008.84
2024-01-01T23:25:02.912Z,1008.87
2024-01-01T23:30:03.552Z,1008.84
2024-01-01T23:35:04.507Z,1008.87
2024-01-01T23:40:03.091Z,1008.98
2024-01-01T23:45:03.752Z,1008.93
2024-01-01T23:50:03.711Z,1008.97
2024-01-01T23:55:04.062Z,1008.95
